sensor_id;sensor_type;location;lat;lon;timestamp;P1;durP1;ratioP1;P2;durP2;ratioP2
52136;SDS011;69622;49.570;10.986;2023-06-19T00:02:29;13.27;;;11.90;;
52136;SDS011;69622;49.570;10.986;2023-06-19T00:05:30;13.85;;;10.63;;
52136;SDS011;69622;49.570;10.986;2023-06-19T00:08:32;12.13;;;10.93;;
52136;SDS011;69622;49.570;10.986;2023-06-19T00:11:33;11.95;;;10.73;;
52136;SDS011;69622;49.570;10.986;2023-06-19T00:14:35;12.18;;;10.98;;
52136;SDS011;69622;49.570;10.986;2023-06-19T00:17:37;12.35;;;11.07;;
52136;SDS011;69622;49.570;10.986;2023-06-19T00:20:39;12.43;;;10.93;;
52136;SDS011;69622;49.570;10.986;2023-06-19T00:23:40;11.93;;;10.65;;
52136;SDS011;69622;49.570;10.986;2023-06-19T00:26:42;12.00;;;10.80;;
52136;SDS011;69622;49.570;10.986;2023-06-19T00:29:44;12.73;;;11.43;;
52136;SDS011;69622;49.570;10.986;2023-06-19T00:32:45;12.95;;;11.40;;
52136;SDS011;69622;49.570;10.986;2023-06-19T00:35:50;12.48;;;11.15;;
52136;SDS011;69622;49.570;10.986;2023-06-19T00:38:52;12.38;;;11.15;;
52136;SDS011;69622;49.570;10.986;2023-06-19T00:41:54;12.30;;;11.05;;
52136;SDS011;69622;49.570;10.986;2023-06-19T00:44:56;12.88;;;11.48;;
52136;SDS011;69622;49.570;10.986;2023-06-19T00:47:58;12.00;;;10.80;;
52136;SDS011;69622;49.570;10.986;2023-06-19T00:51:01;12.18;;;10.88;;
52136;SDS011;69622;49.570;10.986;2023-06-19T00:54:03;12.52;;;10.95;;
52136;SDS011;69622;49.570;10.986;2023-06-19T00:57:05;16.95;;;12.05;;
52136;SDS011;69622;49.570;10.986;2023-06-19T01:00:10;11.65;;;10.52;;
52136;SDS011;69622;49.570;10.986;2023-06-19T01:03:13;11.60;;;10.50;;
52136;SDS011;69622;49.570;10.986;2023-06-19T01:06:29;12.15;;;10.85;;
52136;SDS011;69622;49.570;10.986;2023-06-19T01:09:59;12.43;;;11.13;;
52136;SDS011;69622;49.570;10.986;2023-06-19T01:13:06;13.20;;;10.40;;
52136;SDS011;69622;49.570;10.986;2023-06-19T01:16:11;12.65;;;10.48;;
52136;SDS011;69622;49.570;10.986;2023-06-19T01:19:15;13.80;;;10.38;;
52136;SDS011;69622;49.570;10.986;2023-06-19T01:22:30;11.90;;;10.02;;
52136;SDS011;69622;49.570;10.986;2023-06-19T01:25:32;12.27;;;11.07;;
52136;SDS011;69622;49.570;10.986;2023-06-19T01:28:36;10.98;;;9.82;;
52136;SDS011;69622;49.570;10.986;2023-06-19T01:31:42;12.15;;;10.95;;
52136;SDS011;69622;49.570;10.986;2023-06-19T01:34:52;11.10;;;10.07;;
52136;SDS011;69622;49.570;10.986;2023-06-19T01:37:55;12.82;;;11.00;;
52136;SDS011;69622;49.570;10.986;2023-06-19T01:40:57;11.13;;;10.02;;
52136;SDS011;69622;49.570;10.986;2023-06-19T01:44:01;11.25;;;10.07;;
52136;SDS011;69622;49.570;10.986;2023-06-19T01:47:07;11.48;;;10.32;;
52136;SDS011;69622;49.570;10.986;2023-06-19T01:50:10;14.65;;;10.20;;
52136;SDS011;69622;49.570;10.986;2023-06-19T01:53:12;11.40;;;10.25;;
52136;SDS011;69622;49.570;10.986;2023-06-19T01:56:14;15.15;;;11.15;;
52136;SDS011;69622;49.570;10.986;2023-06-19T01:59:16;11.45;;;10.45;;
52136;SDS011;69622;49.570;10.986;2023-06-19T02:02:18;12.57;;;11.32;;
52136;SDS011;69622;49.570;10.986;2023-06-19T02:05:19;11.65;;;10.48;;
52136;SDS011;69622;49.570;10.986;2023-06-19T02:08:20;11.23;;;9.98;;
52136;SDS011;69622;49.570;10.986;2023-06-19T02:11:22;11.93;;;10.73;;
52136;SDS011;69622;49.570;10.986;2023-06-19T02:14:24;12.70;;;11.40;;
52136;SDS011;69622;49.570;10.986;2023-06-19T02:17:25;11.50;;;10.40;;
52136;SDS011;69622;49.570;10.986;2023-06-19T02:20:27;11.85;;;10.75;;
52136;SDS011;69622;49.570;10.986;2023-06-19T02:23:28;12.80;;;11.48;;
52136;SDS011;69622;49.570;10.986;2023-06-19T02:26:30;12.57;;;11.27;;
52136;SDS011;69622;49.570;10.986;2023-06-19T02:29:31;12.43;;;11.13;;
52136;SDS011;69622;49.570;10.986;2023-06-19T02:32:35;12.75;;;10.63;;
52136;SDS011;69622;49.570;10.986;2023-06-19T02:35:36;13.85;;;12.38;;
52136;SDS011;69622;49.570;10.986;2023-06-19T02:38:37;12.90;;;11.23;;
52136;SDS011;69622;49.570;10.986;2023-06-19T02:41:39;12.60;;;11.30;;
52136;SDS011;69622;49.570;10.986;2023-06-19T02:44:40;12.15;;;10.95;;
52136;SDS011;69622;49.570;10.986;2023-06-19T02:47:43;12.70;;;11.40;;
52136;SDS011;69622;49.570;10.986;2023-06-19T02:50:45;12.20;;;10.90;;
52136;SDS011;69622;49.570;10.986;2023-06-19T02:53:46;11.60;;;10.35;;
52136;SDS011;69622;49.570;10.986;2023-06-19T02:56:48;13.10;;;10.25;;
52136;SDS011;69622;49.570;10.986;2023-06-19T02:59:50;12.07;;;10.88;;
52136;SDS011;69622;49.570;10.986;2023-06-19T03:02:51;11.75;;;10.50;;
52136;SDS011;69622;49.570;10.986;2023-06-19T03:05:53;11.40;;;10.27;;
52136;SDS011;69622;49.570;10.986;2023-06-19T03:08:54;12.15;;;10.73;;
52136;SDS011;69622;49.570;10.986;2023-06-19T03:11:55;11.60;;;10.40;;
52136;SDS011;69622;49.570;10.986;2023-06-19T03:14:57;11.75;;;10.55;;
52136;SDS011;69622;49.570;10.986;2023-06-19T03:17:58;12.35;;;11.07;;
52136;SDS011;69622;49.570;10.986;2023-06-19T03:21:00;11.82;;;10.73;;
52136;SDS011;69622;49.570;10.986;2023-06-19T03:24:02;12.25;;;10.95;;
52136;SDS011;69622;49.570;10.986;2023-06-19T03:27:04;15.48;;;11.02;;
52136;SDS011;69622;49.570;10.986;2023-06-19T03:30:05;12.23;;;10.93;;
52136;SDS011;69622;49.570;10.986;2023-06-19T03:33:07;12.38;;;11.15;;
52136;SDS011;69622;49.570;10.986;2023-06-19T03:36:08;12.18;;;10.88;;
52136;SDS011;69622;49.570;10.986;2023-06-19T03:39:10;12.15;;;9.98;;
52136;SDS011;69622;49.570;10.986;2023-06-19T03:42:11;13.82;;;11.98;;
52136;SDS011;69622;49.570;10.986;2023-06-19T03:45:13;17.20;;;11.32;;
52136;SDS011;69622;49.570;10.986;2023-06-19T03:48:15;12.68;;;10.60;;
52136;SDS011;69622;49.570;10.986;2023-06-19T03:51:17;13.32;;;10.93;;
52136;SDS011;69622;49.570;10.986;2023-06-19T03:54:19;12.65;;;10.75;;
52136;SDS011;69622;49.570;10.986;2023-06-19T03:57:20;10.98;;;9.88;;
52136;SDS011;69622;49.570;10.986;2023-06-19T04:00:22;13.70;;;10.80;;
52136;SDS011;69622;49.570;10.986;2023-06-19T04:03:24;12.40;;;10.20;;
52136;SDS011;69622;49.570;10.986;2023-06-19T04:06:26;11.35;;;9.63;;
52136;SDS011;69622;49.570;10.986;2023-06-19T04:09:27;11.07;;;9.98;;
52136;SDS011;69622;49.570;10.986;2023-06-19T04:12:28;11.45;;;9.32;;
52136;SDS011;69622;49.570;10.986;2023-06-19T04:15:30;12.20;;;10.25;;
52136;SDS011;69622;49.570;10.986;2023-06-19T04:18:33;10.48;;;9.32;;
52136;SDS011;69622;49.570;10.986;2023-06-19T04:21:34;11.70;;;10.15;;
52136;SDS011;69622;49.570;10.986;2023-06-19T04:24:36;10.35;;;9.30;;
52136;SDS011;69622;49.570;10.986;2023-06-19T04:27:37;10.93;;;8.60;;
52136;SDS011;69622;49.570;10.986;2023-06-19T04:30:39;11.07;;;8.88;;
52136;SDS011;69622;49.570;10.986;2023-06-19T04:33:40;10.70;;;9.60;;
52136;SDS011;69622;49.570;10.986;2023-06-19T04:36:43;12.05;;;10.30;;
52136;SDS011;69622;49.570;10.986;2023-06-19T04:39:45;12.75;;;9.82;;
52136;SDS011;69622;49.570;10.986;2023-06-19T04:42:47;12.10;;;9.65;;
52136;SDS011;69622;49.570;10.986;2023-06-19T04:45:49;13.15;;;9.77;;
52136;SDS011;69622;49.570;10.986;2023-06-19T04:48:50;13.18;;;10.55;;
52136;SDS011;69622;49.570;10.986;2023-06-19T04:51:52;11.45;;;10.35;;
52136;SDS011;69622;49.570;10.986;2023-06-19T04:54:53;14.07;;;10.80;;
52136;SDS011;69622;49.570;10.986;2023-06-19T04:57:55;12.15;;;10.48;;
52136;SDS011;69622;49.570;10.986;2023-06-19T05:00:56;10.65;;;9.55;;
52136;SDS011;69622;49.570;10.986;2023-06-19T05:03:57;11.43;;;9.98;;
52136;SDS011;69622;49.570;10.986;2023-06-19T05:07:00;12.55;;;10.70;;
52136;SDS011;69622;49.570;10.986;2023-06-19T05:10:02;11.57;;;10.15;;
52136;SDS011;69622;49.570;10.986;2023-06-19T05:13:04;14.02;;;10.07;;
52136;SDS011;69622;49.570;10.986;2023-06-19T05:16:05;11.35;;;9.18;;
52136;SDS011;69622;49.570;10.986;2023-06-19T05:19:07;10.80;;;9.70;;
52136;SDS011;69622;49.570;10.986;2023-06-19T05:22:08;12.10;;;10.07;;
52136;SDS011;69622;49.570;10.986;2023-06-19T05:25:10;15.07;;;10.73;;
52136;SDS011;69622;49.570;10.986;2023-06-19T05:28:11;12.48;;;9.07;;
52136;SDS011;69622;49.570;10.986;2023-06-19T05:31:12;12.80;;;10.88;;
52136;SDS011;69622;49.570;10.986;2023-06-19T05:34:14;12.88;;;10.38;;
52136;SDS011;69622;49.570;10.986;2023-06-19T05:37:16;13.50;;;10.52;;
52136;SDS011;69622;49.570;10.986;2023-06-19T05:40:17;13.18;;;10.45;;
52136;SDS011;69622;49.570;10.986;2023-06-19T05:43:19;13.73;;;10.20;;
52136;SDS011;69622;49.570;10.986;2023-06-19T05:46:20;11.40;;;9.55;;
52136;SDS011;69622;49.570;10.986;2023-06-19T05:49:22;11.45;;;9.98;;
52136;SDS011;69622;49.570;10.986;2023-06-19T05:52:23;15.77;;;10.95;;
52136;SDS011;69622;49.570;10.986;2023-06-19T05:55:25;12.68;;;10.60;;
52136;SDS011;69622;49.570;10.986;2023-06-19T05:58:28;11.23;;;10.07;;
52136;SDS011;69622;49.570;10.986;2023-06-19T06:01:30;13.13;;;10.80;;
52136;SDS011;69622;49.570;10.986;2023-06-19T06:04:31;13.27;;;11.32;;
52136;SDS011;69622;49.570;10.986;2023-06-19T06:07:34;12.30;;;10.73;;
52136;SDS011;69622;49.570;10.986;2023-06-19T06:10:37;12.88;;;11.48;;
52136;SDS011;69622;49.570;10.986;2023-06-19T06:13:39;13.35;;;11.25;;
52136;SDS011;69622;49.570;10.986;2023-06-19T06:16:40;13.48;;;11.55;;
52136;SDS011;69622;49.570;10.986;2023-06-19T06:19:41;11.45;;;10.25;;
52136;SDS011;69622;49.570;10.986;2023-06-19T06:22:43;11.40;;;10.25;;
52136;SDS011;69622;49.570;10.986;2023-06-19T06:25:45;13.73;;;11.57;;
52136;SDS011;69622;49.570;10.986;2023-06-19T06:28:47;11.02;;;9.90;;
52136;SDS011;69622;49.570;10.986;2023-06-19T06:31:49;11.75;;;9.70;;
52136;SDS011;69622;49.570;10.986;2023-06-19T06:34:53;9.23;;;8.32;;
52136;SDS011;69622;49.570;10.986;2023-06-19T06:37:55;8.60;;;7.30;;
52136;SDS011;69622;49.570;10.986;2023-06-19T06:40:56;9.38;;;6.88;;
52136;SDS011;69622;49.570;10.986;2023-06-19T06:43:58;9.13;;;6.47;;
52136;SDS011;69622;49.570;10.986;2023-06-19T06:46:59;8.18;;;6.18;;
52136;SDS011;69622;49.570;10.986;2023-06-19T06:50:00;6.00;;;5.40;;
52136;SDS011;69622;49.570;10.986;2023-06-19T06:53:03;6.60;;;5.95;;
52136;SDS011;69622;49.570;10.986;2023-06-19T06:56:04;7.70;;;6.00;;
52136;SDS011;69622;49.570;10.986;2023-06-19T06:59:09;6.32;;;5.72;;
52136;SDS011;69622;49.570;10.986;2023-06-19T07:02:11;6.90;;;5.50;;
52136;SDS011;69622;49.570;10.986;2023-06-19T07:05:13;5.97;;;5.07;;
52136;SDS011;69622;49.570;10.986;2023-06-19T07:08:15;5.30;;;4.80;;
52136;SDS011;69622;49.570;10.986;2023-06-19T07:11:17;6.82;;;5.78;;
52136;SDS011;69622;49.570;10.986;2023-06-19T07:14:18;5.90;;;4.63;;
52136;SDS011;69622;49.570;10.986;2023-06-19T07:17:19;5.55;;;4.72;;
52136;SDS011;69622;49.570;10.986;2023-06-19T07:20:22;6.15;;;4.82;;
52136;SDS011;69622;49.570;10.986;2023-06-19T07:23:23;9.98;;;4.70;;
52136;SDS011;69622;49.570;10.986;2023-06-19T07:26:25;11.25;;;4.82;;
52136;SDS011;69622;49.570;10.986;2023-06-19T07:29:27;7.90;;;5.25;;
52136;SDS011;69622;49.570;10.986;2023-06-19T07:32:28;7.78;;;5.45;;
52136;SDS011;69622;49.570;10.986;2023-06-19T07:35:30;12.38;;;5.47;;
52136;SDS011;69622;49.570;10.986;2023-06-19T07:38:31;5.70;;;4.57;;
52136;SDS011;69622;49.570;10.986;2023-06-19T07:41:32;6.18;;;4.78;;
52136;SDS011;69622;49.570;10.986;2023-06-19T07:44:34;5.88;;;3.90;;
52136;SDS011;69622;49.570;10.986;2023-06-19T07:47:35;4.88;;;4.47;;
52136;SDS011;69622;49.570;10.986;2023-06-19T07:50:37;4.88;;;4.35;;
52136;SDS011;69622;49.570;10.986;2023-06-19T07:53:39;7.47;;;4.50;;
52136;SDS011;69622;49.570;10.986;2023-06-19T07:56:41;4.32;;;3.88;;
52136;SDS011;69622;49.570;10.986;2023-06-19T07:59:42;6.20;;;4.32;;
52136;SDS011;69622;49.570;10.986;2023-06-19T08:02:45;6.38;;;4.65;;
52136;SDS011;69622;49.570;10.986;2023-06-19T08:05:47;5.28;;;4.30;;
52136;SDS011;69622;49.570;10.986;2023-06-19T08:08:48;4.47;;;3.85;;
52136;SDS011;69622;49.570;10.986;2023-06-19T08:11:50;4.85;;;4.22;;
52136;SDS011;69622;49.570;10.986;2023-06-19T08:14:51;4.40;;;4.00;;
52136;SDS011;69622;49.570;10.986;2023-06-19T08:17:53;4.78;;;3.92;;
52136;SDS011;69622;49.570;10.986;2023-06-19T08:20:54;6.53;;;5.03;;
52136;SDS011;69622;49.570;10.986;2023-06-19T08:23:56;4.35;;;3.95;;
52136;SDS011;69622;49.570;10.986;2023-06-19T08:26:57;5.80;;;3.70;;
52136;SDS011;69622;49.570;10.986;2023-06-19T08:29:59;4.47;;;4.05;;
52136;SDS011;69622;49.570;10.986;2023-06-19T08:33:01;5.13;;;3.75;;
52136;SDS011;69622;49.570;10.986;2023-06-19T08:36:02;4.53;;;4.13;;
52136;SDS011;69622;49.570;10.986;2023-06-19T08:39:04;5.05;;;4.25;;
52136;SDS011;69622;49.570;10.986;2023-06-19T08:42:06;4.50;;;4.10;;
52136;SDS011;69622;49.570;10.986;2023-06-19T08:45:09;4.50;;;4.10;;
52136;SDS011;69622;49.570;10.986;2023-06-19T08:48:13;4.65;;;4.22;;
52136;SDS011;69622;49.570;10.986;2023-06-19T08:51:15;4.53;;;4.10;;
52136;SDS011;69622;49.570;10.986;2023-06-19T08:54:17;4.75;;;3.70;;
52136;SDS011;69622;49.570;10.986;2023-06-19T08:57:18;5.93;;;4.18;;
52136;SDS011;69622;49.570;10.986;2023-06-19T09:00:24;8.20;;;4.05;;
52136;SDS011;69622;49.570;10.986;2023-06-19T09:03:30;5.32;;;3.45;;
52136;SDS011;69622;49.570;10.986;2023-06-19T09:06:31;4.03;;;3.55;;
52136;SDS011;69622;49.570;10.986;2023-06-19T09:09:33;4.95;;;3.75;;
52136;SDS011;69622;49.570;10.986;2023-06-19T09:12:35;5.30;;;3.90;;
52136;SDS011;69622;49.570;10.986;2023-06-19T09:15:37;6.35;;;3.90;;
52136;SDS011;69622;49.570;10.986;2023-06-19T09:18:47;7.97;;;3.80;;
52136;SDS011;69622;49.570;10.986;2023-06-19T09:21:49;5.75;;;3.53;;
52136;SDS011;69622;49.570;10.986;2023-06-19T09:24:51;3.95;;;3.55;;
52136;SDS011;69622;49.570;10.986;2023-06-19T09:27:53;4.78;;;4.15;;
52136;SDS011;69622;49.570;10.986;2023-06-19T09:30:59;7.60;;;3.95;;
52136;SDS011;69622;49.570;10.986;2023-06-19T09:34:01;6.00;;;3.63;;
52136;SDS011;69622;49.570;10.986;2023-06-19T09:37:03;6.10;;;3.28;;
52136;SDS011;69622;49.570;10.986;2023-06-19T09:40:05;4.15;;;3.80;;
52136;SDS011;69622;49.570;10.986;2023-06-19T09:43:18;5.72;;;3.83;;
52136;SDS011;69622;49.570;10.986;2023-06-19T09:46:24;4.95;;;3.40;;
52136;SDS011;69622;49.570;10.986;2023-06-19T09:49:33;4.55;;;4.03;;
52136;SDS011;69622;49.570;10.986;2023-06-19T09:52:36;8.13;;;3.78;;
52136;SDS011;69622;49.570;10.986;2023-06-19T09:55:37;4.15;;;3.60;;
52136;SDS011;69622;49.570;10.986;2023-06-19T09:58:40;3.97;;;3.58;;
52136;SDS011;69622;49.570;10.986;2023-06-19T10:01:44;4.15;;;3.75;;
52136;SDS011;69622;49.570;10.986;2023-06-19T10:04:48;3.80;;;3.50;;
52136;SDS011;69622;49.570;10.986;2023-06-19T10:07:51;4.25;;;3.85;;
52136;SDS011;69622;49.570;10.986;2023-06-19T10:10:54;4.82;;;4.32;;
52136;SDS011;69622;49.570;10.986;2023-06-19T10:14:05;7.65;;;4.18;;
52136;SDS011;69622;49.570;10.986;2023-06-19T10:17:10;6.43;;;4.03;;
52136;SDS011;69622;49.570;10.986;2023-06-19T10:20:20;8.45;;;4.20;;
52136;SDS011;69622;49.570;10.986;2023-06-19T10:23:27;5.75;;;4.60;;
52136;SDS011;69622;49.570;10.986;2023-06-19T10:26:30;4.53;;;4.10;;
52136;SDS011;69622;49.570;10.986;2023-06-19T10:29:40;4.80;;;4.27;;
52136;SDS011;69622;49.570;10.986;2023-06-19T10:32:47;4.25;;;3.85;;
52136;SDS011;69622;49.570;10.986;2023-06-19T10:35:49;5.78;;;4.07;;
52136;SDS011;69622;49.570;10.986;2023-06-19T10:38:50;5.68;;;4.10;;
52136;SDS011;69622;49.570;10.986;2023-06-19T10:41:52;4.60;;;4.20;;
52136;SDS011;69622;49.570;10.986;2023-06-19T10:44:59;4.97;;;4.10;;
52136;SDS011;69622;49.570;10.986;2023-06-19T10:48:04;4.95;;;4.47;;
52136;SDS011;69622;49.570;10.986;2023-06-19T10:51:06;6.43;;;3.95;;
52136;SDS011;69622;49.570;10.986;2023-06-19T10:54:07;6.55;;;4.03;;
52136;SDS011;69622;49.570;10.986;2023-06-19T10:57:09;6.63;;;4.38;;
52136;SDS011;69622;49.570;10.986;2023-06-19T11:00:10;7.22;;;4.00;;
52136;SDS011;69622;49.570;10.986;2023-06-19T11:03:14;5.80;;;3.78;;
52136;SDS011;69622;49.570;10.986;2023-06-19T11:06:21;5.45;;;4.55;;
52136;SDS011;69622;49.570;10.986;2023-06-19T11:09:23;4.93;;;4.43;;
52136;SDS011;69622;49.570;10.986;2023-06-19T11:12:25;4.63;;;4.22;;
52136;SDS011;69622;49.570;10.986;2023-06-19T11:15:33;4.00;;;3.60;;
52136;SDS011;69622;49.570;10.986;2023-06-19T11:18:35;5.80;;;4.10;;
52136;SDS011;69622;49.570;10.986;2023-06-19T11:21:37;4.47;;;4.05;;
52136;SDS011;69622;49.570;10.986;2023-06-19T11:24:45;4.72;;;4.20;;
52136;SDS011;69622;49.570;10.986;2023-06-19T11:27:47;4.78;;;4.30;;
52136;SDS011;69622;49.570;10.986;2023-06-19T11:31:00;4.75;;;4.30;;
52136;SDS011;69622;49.570;10.986;2023-06-19T11:34:04;4.25;;;3.80;;
52136;SDS011;69622;49.570;10.986;2023-06-19T11:37:15;4.03;;;3.65;;
52136;SDS011;69622;49.570;10.986;2023-06-19T11:40:19;4.20;;;3.90;;
52136;SDS011;69622;49.570;10.986;2023-06-19T11:43:28;4.30;;;3.20;;
52136;SDS011;69622;49.570;10.986;2023-06-19T11:46:31;3.45;;;3.15;;
52136;SDS011;69622;49.570;10.986;2023-06-19T11:49:35;3.85;;;3.45;;
52136;SDS011;69622;49.570;10.986;2023-06-19T11:52:37;6.50;;;3.20;;
52136;SDS011;69622;49.570;10.986;2023-06-19T11:55:38;6.18;;;3.92;;
52136;SDS011;69622;49.570;10.986;2023-06-19T11:58:40;4.68;;;3.90;;
52136;SDS011;69622;49.570;10.986;2023-06-19T12:01:41;4.13;;;3.30;;
52136;SDS011;69622;49.570;10.986;2023-06-19T12:04:43;4.80;;;3.45;;
52136;SDS011;69622;49.570;10.986;2023-06-19T12:07:45;4.68;;;3.33;;
52136;SDS011;69622;49.570;10.986;2023-06-19T12:10:46;4.60;;;3.35;;
52136;SDS011;69622;49.570;10.986;2023-06-19T12:13:48;3.63;;;3.10;;
52136;SDS011;69622;49.570;10.986;2023-06-19T12:16:49;3.38;;;3.08;;
52136;SDS011;69622;49.570;10.986;2023-06-19T12:19:51;4.00;;;3.70;;
52136;SDS011;69622;49.570;10.986;2023-06-19T12:22:54;4.03;;;3.70;;
52136;SDS011;69622;49.570;10.986;2023-06-19T12:25:56;4.50;;;3.33;;
52136;SDS011;69622;49.570;10.986;2023-06-19T12:28:58;4.55;;;4.03;;
52136;SDS011;69622;49.570;10.986;2023-06-19T12:32:00;7.20;;;4.22;;
52136;SDS011;69622;49.570;10.986;2023-06-19T12:35:04;4.65;;;3.58;;
52136;SDS011;69622;49.570;10.986;2023-06-19T12:38:05;4.05;;;3.75;;
52136;SDS011;69622;49.570;10.986;2023-06-19T12:41:08;4.38;;;3.50;;
52136;SDS011;69622;49.570;10.986;2023-06-19T12:44:09;6.40;;;3.58;;
52136;SDS011;69622;49.570;10.986;2023-06-19T12:47:11;3.60;;;3.30;;
52136;SDS011;69622;49.570;10.986;2023-06-19T12:50:13;3.97;;;3.67;;
52136;SDS011;69622;49.570;10.986;2023-06-19T12:53:14;5.80;;;3.78;;
52136;SDS011;69622;49.570;10.986;2023-06-19T12:56:16;3.97;;;3.67;;
52136;SDS011;69622;49.570;10.986;2023-06-19T12:59:17;7.28;;;3.80;;
52136;SDS011;69622;49.570;10.986;2023-06-19T13:02:19;5.10;;;3.50;;
52136;SDS011;69622;49.570;10.986;2023-06-19T13:05:21;4.85;;;3.42;;
52136;SDS011;69622;49.570;10.986;2023-06-19T13:08:22;4.47;;;3.60;;
52136;SDS011;69622;49.570;10.986;2023-06-19T13:11:24;5.90;;;4.00;;
52136;SDS011;69622;49.570;10.986;2023-06-19T13:14:25;3.47;;;3.10;;
52136;SDS011;69622;49.570;10.986;2023-06-19T13:17:26;4.10;;;3.13;;
52136;SDS011;69622;49.570;10.986;2023-06-19T13:20:28;3.92;;;3.53;;
52136;SDS011;69622;49.570;10.986;2023-06-19T13:23:29;4.50;;;3.13;;
52136;SDS011;69622;49.570;10.986;2023-06-19T13:26:32;5.07;;;3.70;;
52136;SDS011;69622;49.570;10.986;2023-06-19T13:29:33;5.68;;;3.70;;
52136;SDS011;69622;49.570;10.986;2023-06-19T13:32:35;3.88;;;3.58;;
52136;SDS011;69622;49.570;10.986;2023-06-19T13:35:36;3.95;;;3.58;;
52136;SDS011;69622;49.570;10.986;2023-06-19T13:38:38;4.25;;;3.85;;
52136;SDS011;69622;49.570;10.986;2023-06-19T13:41:40;3.60;;;3.30;;
52136;SDS011;69622;49.570;10.986;2023-06-19T13:44:42;4.30;;;3.90;;
52136;SDS011;69622;49.570;10.986;2023-06-19T13:47:43;4.82;;;3.85;;
52136;SDS011;69622;49.570;10.986;2023-06-19T13:50:45;7.82;;;3.70;;
52136;SDS011;69622;49.570;10.986;2023-06-19T13:53:48;6.53;;;3.78;;
52136;SDS011;69622;49.570;10.986;2023-06-19T13:56:49;4.50;;;4.10;;
52136;SDS011;69622;49.570;10.986;2023-06-19T13:59:52;4.63;;;4.20;;
52136;SDS011;69622;49.570;10.986;2023-06-19T14:02:53;4.75;;;3.70;;
52136;SDS011;69622;49.570;10.986;2023-06-19T14:06:00;5.25;;;3.78;;
52136;SDS011;69622;49.570;10.986;2023-06-19T14:09:02;4.90;;;3.95;;
52136;SDS011;69622;49.570;10.986;2023-06-19T14:12:03;5.07;;;3.78;;
52136;SDS011;69622;49.570;10.986;2023-06-19T14:15:05;4.70;;;4.22;;
52136;SDS011;69622;49.570;10.986;2023-06-19T14:18:09;5.53;;;4.03;;
52136;SDS011;69622;49.570;10.986;2023-06-19T14:21:11;4.25;;;3.85;;
52136;SDS011;69622;49.570;10.986;2023-06-19T14:24:12;4.43;;;3.90;;
52136;SDS011;69622;49.570;10.986;2023-06-19T14:27:14;5.00;;;4.35;;
52136;SDS011;69622;49.570;10.986;2023-06-19T14:30:16;6.32;;;4.22;;
52136;SDS011;69622;49.570;10.986;2023-06-19T14:33:18;5.20;;;4.80;;
52136;SDS011;69622;49.570;10.986;2023-06-19T14:36:19;5.88;;;4.70;;
52136;SDS011;69622;49.570;10.986;2023-06-19T14:39:21;14.35;;;4.82;;
52136;SDS011;69622;49.570;10.986;2023-06-19T14:42:23;4.75;;;4.15;;
52136;SDS011;69622;49.570;10.986;2023-06-19T14:45:24;4.85;;;4.35;;
52136;SDS011;69622;49.570;10.986;2023-06-19T14:48:28;4.93;;;4.30;;
52136;SDS011;69622;49.570;10.986;2023-06-19T14:51:31;8.13;;;4.80;;
52136;SDS011;69622;49.570;10.986;2023-06-19T14:54:33;4.88;;;4.47;;
52136;SDS011;69622;49.570;10.986;2023-06-19T14:57:35;5.25;;;4.60;;
52136;SDS011;69622;49.570;10.986;2023-06-19T15:00:37;5.13;;;4.63;;
52136;SDS011;69622;49.570;10.986;2023-06-19T15:03:39;4.85;;;4.35;;
52136;SDS011;69622;49.570;10.986;2023-06-19T15:06:41;6.15;;;4.13;;
52136;SDS011;69622;49.570;10.986;2023-06-19T15:09:43;6.85;;;4.57;;
52136;SDS011;69622;49.570;10.986;2023-06-19T15:12:44;4.50;;;4.07;;
52136;SDS011;69622;49.570;10.986;2023-06-19T15:15:45;5.10;;;4.55;;
52136;SDS011;69622;49.570;10.986;2023-06-19T15:18:48;5.20;;;4.15;;
52136;SDS011;69622;49.570;10.986;2023-06-19T15:21:49;5.35;;;4.85;;
52136;SDS011;69622;49.570;10.986;2023-06-19T15:24:51;5.95;;;4.00;;
52136;SDS011;69622;49.570;10.986;2023-06-19T15:27:52;4.97;;;4.40;;
52136;SDS011;69622;49.570;10.986;2023-06-19T15:30:54;6.10;;;4.28;;
52136;SDS011;69622;49.570;10.986;2023-06-19T15:33:55;5.10;;;4.63;;
52136;SDS011;69622;49.570;10.986;2023-06-19T15:36:58;6.50;;;4.25;;
52136;SDS011;69622;49.570;10.986;2023-06-19T15:39:59;6.57;;;3.90;;
52136;SDS011;69622;49.570;10.986;2023-06-19T15:43:04;4.88;;;4.30;;
52136;SDS011;69622;49.570;10.986;2023-06-19T15:46:06;6.13;;;3.60;;
52136;SDS011;69622;49.570;10.986;2023-06-19T15:49:12;6.00;;;3.90;;
52136;SDS011;69622;49.570;10.986;2023-06-19T15:52:14;4.18;;;3.78;;
52136;SDS011;69622;49.570;10.986;2023-06-19T15:55:15;4.35;;;3.83;;
52136;SDS011;69622;49.570;10.986;2023-06-19T15:58:17;4.25;;;3.50;;
52136;SDS011;69622;49.570;10.986;2023-06-19T16:01:18;4.13;;;3.42;;
52136;SDS011;69622;49.570;10.986;2023-06-19T16:04:20;4.07;;;3.65;;
52136;SDS011;69622;49.570;10.986;2023-06-19T16:07:21;5.00;;;3.85;;
52136;SDS011;69622;49.570;10.986;2023-06-19T16:10:23;7.00;;;3.95;;
52136;SDS011;69622;49.570;10.986;2023-06-19T16:13:25;5.22;;;3.95;;
52136;SDS011;69622;49.570;10.986;2023-06-19T16:16:26;5.40;;;4.47;;
52136;SDS011;69622;49.570;10.986;2023-06-19T16:19:28;5.38;;;3.63;;
52136;SDS011;69622;49.570;10.986;2023-06-19T16:22:29;6.18;;;4.07;;
52136;SDS011;69622;49.570;10.986;2023-06-19T16:25:31;4.20;;;3.80;;
52136;SDS011;69622;49.570;10.986;2023-06-19T16:28:32;4.45;;;4.05;;
52136;SDS011;69622;49.570;10.986;2023-06-19T16:31:34;5.05;;;3.90;;
52136;SDS011;69622;49.570;10.986;2023-06-19T16:34:42;4.05;;;3.65;;
52136;SDS011;69622;49.570;10.986;2023-06-19T16:37:43;5.03;;;4.05;;
52136;SDS011;69622;49.570;10.986;2023-06-19T16:40:45;5.00;;;3.85;;
52136;SDS011;69622;49.570;10.986;2023-06-19T16:43:46;4.40;;;3.97;;
52136;SDS011;69622;49.570;10.986;2023-06-19T16:46:48;3.70;;;3.40;;
52136;SDS011;69622;49.570;10.986;2023-06-19T16:49:50;6.22;;;4.00;;
52136;SDS011;69622;49.570;10.986;2023-06-19T16:52:52;9.75;;;4.68;;
52136;SDS011;69622;49.570;10.986;2023-06-19T16:55:53;4.38;;;3.67;;
52136;SDS011;69622;49.570;10.986;2023-06-19T16:58:57;5.23;;;4.30;;
52136;SDS011;69622;49.570;10.986;2023-06-19T17:01:58;5.97;;;3.95;;
52136;SDS011;69622;49.570;10.986;2023-06-19T17:05:00;6.25;;;4.40;;
52136;SDS011;69622;49.570;10.986;2023-06-19T17:08:02;4.60;;;4.15;;
52136;SDS011;69622;49.570;10.986;2023-06-19T17:11:03;9.88;;;3.80;;
52136;SDS011;69622;49.570;10.986;2023-06-19T17:14:04;4.57;;;4.10;;
52136;SDS011;69622;49.570;10.986;2023-06-19T17:17:06;5.78;;;4.50;;
52136;SDS011;69622;49.570;10.986;2023-06-19T17:20:07;6.45;;;4.03;;
52136;SDS011;69622;49.570;10.986;2023-06-19T17:23:10;4.82;;;4.10;;
52136;SDS011;69622;49.570;10.986;2023-06-19T17:26:12;4.32;;;3.85;;
52136;SDS011;69622;49.570;10.986;2023-06-19T17:29:13;3.85;;;3.55;;
52136;SDS011;69622;49.570;10.986;2023-06-19T17:32:14;4.40;;;4.00;;
52136;SDS011;69622;49.570;10.986;2023-06-19T17:35:16;3.90;;;3.50;;
52136;SDS011;69622;49.570;10.986;2023-06-19T17:38:18;4.55;;;3.50;;
52136;SDS011;69622;49.570;10.986;2023-06-19T17:41:20;3.72;;;3.42;;
52136;SDS011;69622;49.570;10.986;2023-06-19T17:44:21;3.70;;;3.40;;
52136;SDS011;69622;49.570;10.986;2023-06-19T17:47:26;5.25;;;4.18;;
52136;SDS011;69622;49.570;10.986;2023-06-19T17:50:28;4.32;;;3.47;;
52136;SDS011;69622;49.570;10.986;2023-06-19T17:53:29;4.95;;;3.95;;